createdAt,value
2019-04-04T00:01:27.567Z,55.80
2019-04-04T00:03:56.240Z,57.09
2019-04-04T00:06:26.948Z,55.86
2019-04-04T00:08:55.452Z,55.34
2019-04-04T00:11:24.188Z,55.26
2019-04-04T00:13:52.859Z,55.55
2019-04-04T00:16:21.411Z,56.13
2019-04-04T00:18:50.071Z,57.77
2019-04-04T00:21:18.645Z,56.12
2019-04-04T00:23:47.995Z,56.00
2019-04-04T00:26:16.741Z,58.87
2019-04-04T00:28:46.064Z,57.73
2019-04-04T00:31:15.301Z,58.19
2019-04-04T00:33:43.958Z,59.10
2019-04-04T00:36:12.633Z,58.02
2019-04-04T00:38:41.654Z,57.31
2019-04-04T00:41:11.040Z,58.02
2019-04-04T00:43:40.933Z,59.26
2019-04-04T00:46:09.622Z,60.00
2019-04-04T00:48:38.259Z,61.53
2019-04-04T00:51:08.050Z,59.76
2019-04-04T00:53:37.231Z,59.63
2019-04-04T00:56:05.843Z,60.94
2019-04-04T00:58:34.474Z,61.64
2019-04-04T01:01:03.540Z,61.47
2019-04-04T01:03:32.162Z,61.41
2019-04-04T01:06:02.833Z,62.29
2019-04-04T01:08:31.430Z,64.12
2019-04-04T01:11:00.073Z,60.80
2019-04-04T01:13:28.595Z,62.33
2019-04-04T01:15:57.258Z,64.65
2019-04-04T01:18:25.914Z,62.99
2019-04-04T01:20:54.574Z,63.17
2019-04-04T01:23:23.248Z,62.28
2019-04-04T01:25:51.918Z,63.80
2019-04-04T01:28:20.667Z,62.52
2019-04-04T01:30:49.301Z,64.05
2019-04-04T01:33:19.738Z,61.38
2019-04-04T01:35:48.406Z,61.07
2019-04-04T01:38:17.147Z,63.21
2019-04-04T01:40:45.786Z,62.88
2019-04-04T01:43:14.418Z,62.21
2019-04-04T01:45:44.171Z,63.73
2019-04-04T01:48:13.652Z,63.96
2019-04-04T01:50:42.338Z,63.65
2019-04-04T01:53:11.007Z,63.48
2019-04-04T01:55:40.540Z,65.61
2019-04-04T01:58:10.003Z,63.83
2019-04-04T02:00:39.361Z,64.22
2019-04-04T02:03:08.063Z,65.27
2019-04-04T02:05:36.612Z,63.40
2019-04-04T02:08:05.378Z,64.61
2019-04-04T02:10:35.296Z,63.91
2019-04-04T02:13:04.096Z,63.12
2019-04-04T02:15:32.827Z,63.53
2019-04-04T02:18:01.514Z,65.51
2019-04-04T02:20:30.072Z,64.83
2019-04-04T02:23:01.167Z,65.21
2019-04-04T02:25:29.279Z,65.54
2019-04-04T02:27:58.489Z,65.15
2019-04-04T02:30:27.541Z,64.00
2019-04-04T02:32:59.445Z,64.44
2019-04-04T02:35:26.855Z,63.97
2019-04-04T02:37:56.185Z,65.22
2019-04-04T02:40:24.954Z,66.26
2019-04-04T02:42:55.271Z,65.51
2019-04-04T02:45:25.134Z,66.90
2019-04-04T02:47:53.685Z,64.48
2019-04-04T02:50:22.341Z,65.90
2019-04-04T02:52:50.893Z,66.66
2019-04-04T02:55:19.622Z,63.84
2019-04-04T02:57:48.145Z,68.41
2019-04-04T03:00:17.035Z,66.95
2019-04-04T03:02:45.725Z,67.20
2019-04-04T03:05:18.757Z,67.82
2019-04-04T03:07:44.817Z,67.93
2019-04-04T03:10:16.341Z,68.11
2019-04-04T03:12:44.156Z,68.48
2019-04-04T03:15:12.784Z,69.40
2019-04-04T03:17:41.268Z,68.57
2019-04-04T03:20:09.793Z,70.36
2019-04-04T03:22:38.461Z,68.02
2019-04-04T03:25:07.123Z,68.56
2019-04-04T03:27:35.939Z,69.22
2019-04-04T03:30:05.238Z,69.43
2019-04-04T03:32:33.882Z,68.69
2019-04-04T03:35:02.600Z,69.73
2019-04-04T03:37:31.421Z,69.30
2019-04-04T03:40:00.092Z,67.09
2019-04-04T03:42:28.656Z,66.87
2019-04-04T03:44:57.309Z,68.42
2019-04-04T03:47:25.952Z,69.28
2019-04-04T03:49:57.715Z,67.66
2019-04-04T03:52:25.024Z,66.40
2019-04-04T03:54:56.321Z,67.10
2019-04-04T03:57:24.308Z,66.94
2019-04-04T03:59:52.964Z,68.00
2019-04-04T04:02:21.614Z,68.39
2019-04-04T04:04:50.265Z,69.52
2019-04-04T04:07:18.888Z,69.43
2019-04-04T04:09:47.432Z,68.64
2019-04-04T04:12:16.067Z,67.95
2019-04-04T04:14:44.608Z,66.45
2019-04-04T04:17:13.261Z,68.81
2019-04-04T04:19:41.876Z,69.22
2019-04-04T04:22:12.963Z,66.83
2019-04-04T04:24:40.995Z,67.48
2019-04-04T04:27:14.416Z,68.44
2019-04-04T04:29:40.288Z,69.52
2019-04-04T04:32:09.130Z,69.35
2019-04-04T04:34:37.682Z,72.20
2019-04-04T04:37:06.419Z,71.13
2019-04-04T04:39:40.779Z,70.91
2019-04-04T04:42:05.528Z,70.93
2019-04-04T04:44:37.770Z,71.10
2019-04-04T04:47:04.671Z,70.80
2019-04-04T04:49:35.642Z,70.47
2019-04-04T04:52:03.871Z,72.75
2019-04-04T04:54:32.512Z,72.04
2019-04-04T04:57:03.531Z,70.60
2019-04-04T04:59:31.832Z,71.76
2019-04-04T05:02:00.379Z,70.70
2019-04-04T05:04:29.155Z,71.39
2019-04-04T05:06:57.899Z,69.92
2019-04-04T05:09:26.459Z,71.70
2019-04-04T05:11:54.998Z,71.58
2019-04-04T05:14:23.630Z,71.12
2019-04-04T05:16:52.183Z,70.21
2019-04-04T05:19:20.934Z,70.78
2019-04-04T05:21:49.631Z,71.01
2019-04-04T05:24:18.764Z,70.25
2019-04-04T05:26:47.543Z,69.97
2019-04-04T05:29:16.230Z,69.09
2019-04-04T05:31:44.878Z,68.87
2019-04-04T05:34:13.570Z,68.59
2019-04-04T05:36:42.115Z,67.83
2019-04-04T05:39:10.874Z,68.88
2019-04-04T05:41:39.481Z,67.93
2019-04-04T05:44:09.956Z,68.90
2019-04-04T05:46:38.585Z,69.42
2019-04-04T05:49:08.272Z,67.43
2019-04-04T05:51:37.133Z,66.81
2019-04-04T05:54:07.502Z,67.69
2019-04-04T05:56:36.364Z,66.65
2019-04-04T05:59:05.033Z,66.33
2019-04-04T06:01:35.309Z,65.65
2019-04-04T06:04:04.343Z,65.99
2019-04-04T06:06:33.405Z,63.55
2019-04-04T06:09:05.052Z,64.12
2019-04-04T06:11:33.723Z,65.04
2019-04-04T06:14:02.388Z,63.19
2019-04-04T06:16:31.032Z,62.32
2019-04-04T06:18:59.711Z,62.87
2019-04-04T06:21:28.387Z,62.89
2019-04-04T06:23:57.201Z,63.73
2019-04-04T06:26:25.851Z,60.75
2019-04-04T06:28:54.402Z,60.83
2019-04-04T06:31:26.273Z,60.46
2019-04-04T06:33:53.654Z,61.09
2019-04-04T06:36:22.242Z,61.28
2019-04-04T06:38:52.214Z,61.80
2019-04-04T06:41:21.674Z,60.11
2019-04-04T06:43:50.276Z,60.53
2019-04-04T06:46:22.608Z,60.92
2019-04-04T06:48:50.048Z,62.69
2019-04-04T06:51:18.656Z,62.38
2019-04-04T06:53:47.463Z,62.04
2019-04-04T06:56:16.227Z,61.34
2019-04-04T06:58:44.914Z,61.73
2019-04-04T07:01:13.543Z,61.21
2019-04-04T07:03:42.287Z,61.17
2019-04-04T07:06:11.002Z,62.28
2019-04-04T07:08:39.750Z,60.98
2019-04-04T07:11:21.097Z,62.01
2019-04-04T07:13:42.717Z,62.65
2019-04-04T07:16:09.618Z,61.41
2019-04-04T07:18:38.269Z,62.70
2019-04-04T07:21:06.871Z,61.49
2019-04-04T07:23:35.661Z,61.92
2019-04-04T07:26:04.575Z,60.93
2019-04-04T07:28:33.223Z,58.62
2019-04-04T07:31:02.546Z,58.77
2019-04-04T07:33:31.445Z,57.17
2019-04-04T07:36:00.124Z,57.21
2019-04-04T07:38:29.390Z,55.91
2019-04-04T07:40:58.310Z,56.42
2019-04-04T07:43:27.118Z,56.64
2019-04-04T07:45:59.754Z,56.54
2019-04-04T07:48:28.490Z,55.54
2019-04-04T07:50:58.484Z,55.63
2019-04-04T07:53:28.390Z,53.03
2019-04-04T07:55:57.187Z,53.07
2019-04-04T07:58:25.898Z,51.65
2019-04-04T08:00:54.850Z,54.67
2019-04-04T08:03:23.684Z,54.51
2019-04-04T08:05:52.570Z,55.39
2019-04-04T08:08:21.135Z,55.16
2019-04-04T08:10:49.772Z,55.16
2019-04-04T08:13:18.447Z,54.96
2019-04-04T08:15:47.043Z,54.71
2019-04-04T08:18:15.719Z,53.06
2019-04-04T08:20:44.304Z,54.03
2019-04-04T08:23:13.106Z,52.62
2019-04-04T08:25:41.663Z,52.89
2019-04-04T08:28:10.237Z,52.63
2019-04-04T08:30:38.893Z,53.19
2019-04-04T08:33:07.667Z,50.97
2019-04-04T08:35:36.406Z,50.85
2019-04-04T08:38:05.167Z,50.81
2019-04-04T08:40:33.881Z,51.73
2019-04-04T08:43:02.647Z,51.36
2019-04-04T08:45:31.355Z,50.37
2019-04-04T08:48:00.019Z,51.29
2019-04-04T08:50:28.675Z,50.86
2019-04-04T08:52:57.319Z,50.65
2019-04-04T08:55:25.971Z,50.15
2019-04-04T08:57:54.634Z,51.88
2019-04-04T09:00:23.319Z,49.76
2019-04-04T09:02:51.964Z,50.58
2019-04-04T09:05:20.655Z,50.69
2019-04-04T09:07:49.341Z,49.58
2019-04-04T09:10:18.527Z,50.65
2019-04-04T09:12:47.129Z,51.99
2019-04-04T09:15:16.101Z,49.36
2019-04-04T09:17:45.081Z,49.53
2019-04-04T09:20:14.004Z,50.25
2019-04-04T09:22:42.889Z,50.39
2019-04-04T09:25:12.146Z,49.55
2019-04-04T09:27:40.909Z,49.66
2019-04-04T09:30:10.250Z,49.26
2019-04-04T09:32:39.111Z,50.72
2019-04-04T09:35:08.164Z,51.08
2019-04-04T09:37:36.894Z,48.87
2019-04-04T09:40:06.193Z,49.05
2019-04-04T09:42:34.938Z,49.31
2019-04-04T09:45:04.495Z,49.10
2019-04-04T09:47:33.147Z,50.25
2019-04-04T09:50:01.682Z,49.39
2019-04-04T09:52:30.546Z,48.35
2019-04-04T09:54:59.303Z,48.56
2019-04-04T09:57:27.874Z,47.66
2019-04-04T09:59:56.546Z,49.46
2019-04-04T10:02:25.172Z,48.05
2019-04-04T10:04:53.759Z,48.90
2019-04-04T10:07:25.083Z,48.48
2019-04-04T10:09:52.994Z,47.95
2019-04-04T10:12:21.652Z,46.59
2019-04-04T10:14:50.529Z,46.85
2019-04-04T10:17:19.200Z,45.47
2019-04-04T10:19:47.951Z,45.91
2019-04-04T10:22:16.634Z,44.24
2019-04-04T10:24:45.178Z,44.52
2019-04-04T10:27:13.842Z,43.94
2019-04-04T10:29:42.621Z,43.64
2019-04-04T10:32:11.373Z,43.83
2019-04-04T10:34:40.055Z,43.61
2019-04-04T10:37:08.737Z,44.19
2019-04-04T10:39:37.527Z,43.64
2019-04-04T10:42:06.203Z,42.85
2019-04-04T10:44:37.055Z,43.23
2019-04-04T10:47:05.442Z,45.33
2019-04-04T10:49:34.112Z,45.09
2019-04-04T10:52:02.790Z,43.02
2019-04-04T10:54:31.542Z,43.42
2019-04-04T10:57:00.292Z,41.46
2019-04-04T10:59:28.982Z,41.00
2019-04-04T11:02:00.739Z,41.32
2019-04-04T11:04:28.016Z,41.84
2019-04-04T11:06:56.674Z,41.28
2019-04-04T11:09:25.326Z,41.39
2019-04-04T11:11:54.076Z,40.22
2019-04-04T11:14:25.088Z,40.35
2019-04-04T11:16:53.231Z,41.78
2019-04-04T11:19:31.188Z,41.58
2019-04-04T11:21:52.255Z,40.86
2019-04-04T11:24:20.915Z,38.86
2019-04-04T11:26:49.554Z,37.98
2019-04-04T11:29:18.244Z,37.85
2019-04-04T11:31:46.915Z,39.84
2019-04-04T11:34:15.507Z,40.71
2019-04-04T11:36:44.272Z,40.47
2019-04-04T11:39:13.021Z,41.57
2019-04-04T11:41:41.696Z,40.82
2019-04-04T11:44:10.398Z,40.60
2019-04-04T11:46:39.171Z,40.59
2019-04-04T11:49:08.234Z,42.18
2019-04-04T11:51:36.896Z,41.67
2019-04-04T11:54:05.520Z,41.20
2019-04-04T11:56:34.170Z,40.66
2019-04-04T11:59:03.036Z,40.96
2019-04-04T12:01:32.776Z,41.30
2019-04-04T12:04:01.633Z,41.79
2019-04-04T12:06:30.392Z,41.44
2019-04-04T12:08:59.248Z,43.58
2019-04-04T12:11:27.942Z,41.10
2019-04-04T12:13:56.910Z,41.43
2019-04-04T12:16:25.545Z,40.30
2019-04-04T12:18:54.206Z,40.07
2019-04-04T12:21:22.851Z,40.20
2019-04-04T12:23:51.741Z,40.20
2019-04-04T12:26:20.462Z,39.90
2019-04-04T12:28:49.037Z,40.27
2019-04-04T12:31:17.675Z,42.47
2019-04-04T12:33:48.892Z,39.78
2019-04-04T12:36:24.769Z,39.63
2019-04-04T12:38:54.026Z,40.88
2019-04-04T12:41:22.623Z,39.90
2019-04-04T12:43:51.616Z,39.79
2019-04-04T12:46:20.714Z,40.51
2019-04-04T12:48:49.325Z,40.82
2019-04-04T12:51:20.313Z,40.03
2019-04-04T12:53:51.129Z,39.92
2019-04-04T12:56:19.728Z,43.64
2019-04-04T12:58:51.082Z,40.55
2019-04-04T13:01:21.430Z,41.48
2019-04-04T13:03:52.961Z,40.12
2019-04-04T13:06:22.794Z,39.76
2019-04-04T13:08:51.217Z,41.26
2019-04-04T13:11:22.078Z,39.76
2019-04-04T13:13:51.839Z,40.47
2019-04-04T13:16:21.678Z,41.45
2019-04-04T13:18:51.375Z,42.42
2019-04-04T13:21:21.622Z,40.77
2019-04-04T13:23:50.641Z,41.08
2019-04-04T13:26:19.557Z,39.56
2019-04-04T13:28:48.249Z,41.13
2019-04-04T13:31:17.274Z,40.45
2019-04-04T13:33:46.080Z,40.83
2019-04-04T13:36:15.297Z,39.90
2019-04-04T13:38:43.966Z,39.55
2019-04-04T13:41:21.805Z,39.33
2019-04-04T13:43:43.306Z,39.88
2019-04-04T13:46:11.964Z,39.69
2019-04-04T13:48:43.114Z,40.26
2019-04-04T13:51:11.310Z,37.40
2019-04-04T13:53:41.534Z,36.10
2019-04-04T13:56:10.280Z,35.64
2019-04-04T13:58:39.236Z,36.31
2019-04-04T14:01:08.037Z,35.08
2019-04-04T14:03:36.644Z,35.09
2019-04-04T14:06:05.401Z,34.67
2019-04-04T14:08:34.805Z,35.24
2019-04-04T14:11:03.542Z,34.62
2019-04-04T14:13:32.683Z,36.42
2019-04-04T14:16:01.380Z,38.41
2019-04-04T14:18:39.817Z,37.53
2019-04-04T14:21:04.860Z,39.95
2019-04-04T14:23:33.633Z,38.33
2019-04-04T14:26:02.508Z,38.55
2019-04-04T14:28:31.509Z,38.00
2019-04-04T14:31:00.358Z,39.52
2019-04-04T14:33:29.102Z,39.84
2019-04-04T14:35:57.906Z,39.87
2019-04-04T14:38:26.794Z,41.73
2019-04-04T14:40:55.431Z,42.49
2019-04-04T14:43:24.094Z,41.40
2019-04-04T14:45:52.650Z,42.43
2019-04-04T14:48:21.566Z,39.83
2019-04-04T14:50:50.334Z,40.22
2019-04-04T14:53:19.420Z,41.62
2019-04-04T14:55:48.196Z,42.68
2019-04-04T14:58:17.367Z,41.28
2019-04-04T15:00:46.153Z,43.32
2019-04-04T15:03:15.103Z,41.79
2019-04-04T15:05:43.958Z,40.22
2019-04-04T15:08:12.818Z,41.11
2019-04-04T15:10:41.561Z,43.56
2019-04-04T15:13:10.565Z,42.62
2019-04-04T15:16:01.491Z,43.13
2019-04-04T15:18:30.595Z,41.60
2019-04-04T15:20:59.453Z,42.40
2019-04-04T15:23:28.308Z,43.96
2019-04-04T15:25:57.167Z,42.01
2019-04-04T15:28:26.897Z,41.60
2019-04-04T15:30:56.446Z,42.43
2019-04-04T15:33:26.021Z,43.78
2019-04-04T15:35:54.952Z,44.55
2019-04-04T15:38:24.153Z,42.30
2019-04-04T15:40:52.915Z,44.02
2019-04-04T15:43:21.643Z,43.49
2019-04-04T15:45:50.516Z,43.72
2019-04-04T15:48:19.164Z,42.34
2019-04-04T15:50:48.013Z,42.77
2019-04-04T15:53:16.903Z,42.76
2019-04-04T15:55:45.462Z,44.47
2019-04-04T15:58:14.096Z,42.40
2019-04-04T16:00:43.013Z,42.58
2019-04-04T16:03:11.781Z,42.46
2019-04-04T16:05:40.968Z,43.69
2019-04-04T16:08:09.732Z,44.31
2019-04-04T16:10:38.558Z,43.78
2019-04-04T16:13:07.325Z,43.34
2019-04-04T16:15:35.977Z,43.20
2019-04-04T16:18:04.964Z,43.30
2019-04-04T16:20:33.923Z,43.65
2019-04-04T16:23:02.685Z,43.94
2019-04-04T16:25:31.675Z,44.00
2019-04-04T16:28:00.425Z,45.42
2019-04-04T16:30:29.007Z,46.23
2019-04-04T16:32:57.726Z,45.04
2019-04-04T16:35:26.667Z,46.05
2019-04-04T16:37:55.938Z,47.12
2019-04-04T16:40:24.881Z,46.40
2019-04-04T16:42:53.932Z,45.82
2019-04-04T16:45:22.894Z,44.98
2019-04-04T16:47:51.784Z,45.44
2019-04-04T16:50:20.790Z,45.08
2019-04-04T16:52:49.867Z,48.79
2019-04-04T16:55:18.602Z,47.18
2019-04-04T16:57:47.499Z,45.38
2019-04-04T17:00:20.640Z,46.14
2019-04-04T17:02:48.382Z,46.31
2019-04-04T17:05:17.289Z,47.04
2019-04-04T17:07:46.411Z,46.24
2019-04-04T17:10:17.589Z,46.59
2019-04-04T17:12:46.243Z,47.73
2019-04-04T17:15:15.142Z,46.67
2019-04-04T17:17:43.999Z,46.92
2019-04-04T17:20:13.676Z,46.02
2019-04-04T17:22:42.418Z,46.50
2019-04-04T17:25:11.194Z,49.52
2019-04-04T17:27:40.369Z,48.79
2019-04-04T17:30:09.761Z,47.43
2019-04-04T17:32:39.926Z,46.89
2019-04-04T17:35:09.630Z,47.60
2019-04-04T17:37:38.154Z,47.92
2019-04-04T17:40:07.359Z,46.84
2019-04-04T17:42:35.816Z,49.09
2019-04-04T17:45:05.861Z,48.29
2019-04-04T17:47:35.080Z,47.28
2019-04-04T17:50:05.301Z,47.21
2019-04-04T17:52:34.728Z,47.92
2019-04-04T17:55:04.276Z,48.29
2019-04-04T17:57:32.861Z,48.98
2019-04-04T18:00:01.505Z,48.94
2019-04-04T18:02:30.160Z,48.70
2019-04-04T18:04:58.951Z,48.09
2019-04-04T18:07:28.006Z,48.77
2019-04-04T18:09:56.977Z,49.09
2019-04-04T18:12:25.928Z,48.44
2019-04-04T18:14:56.630Z,49.02
2019-04-04T18:17:25.397Z,49.07
2019-04-04T18:19:54.259Z,48.86
2019-04-04T18:22:22.945Z,50.36
2019-04-04T18:24:51.913Z,50.08
2019-04-04T18:27:20.798Z,49.39
2019-04-04T18:29:49.544Z,48.83
2019-04-04T18:32:18.308Z,49.72
2019-04-04T18:34:47.537Z,49.86
2019-04-04T18:37:16.399Z,49.15
2019-04-04T18:39:45.784Z,49.19
2019-04-04T18:42:14.490Z,50.52
2019-04-04T18:44:43.140Z,51.02
2019-04-04T18:47:11.935Z,49.71
2019-04-04T18:49:40.691Z,50.26
2019-04-04T18:52:09.459Z,50.24
2019-04-04T18:54:38.306Z,50.63
2019-04-04T18:57:07.515Z,51.80
2019-04-04T18:59:36.355Z,50.46
2019-04-04T19:02:05.292Z,51.91
2019-04-04T19:04:33.970Z,50.50
2019-04-04T19:07:03.258Z,52.04
2019-04-04T19:09:31.992Z,50.75
2019-04-04T19:12:00.931Z,50.67
2019-04-04T19:14:29.761Z,50.68
2019-04-04T19:16:58.506Z,50.65
2019-04-04T19:19:27.067Z,51.95
2019-04-04T19:21:57.292Z,52.61
2019-04-04T19:24:26.135Z,51.97
2019-04-04T19:26:54.796Z,52.62
2019-04-04T19:29:23.984Z,51.67
2019-04-04T19:31:52.650Z,53.50
2019-04-04T19:34:21.670Z,52.63
2019-04-04T19:36:50.370Z,51.94
2019-04-04T19:39:19.801Z,53.04
2019-04-04T19:41:49.146Z,52.93
2019-04-04T19:44:18.091Z,52.09
2019-04-04T19:46:46.676Z,54.45
2019-04-04T19:49:15.625Z,52.85
2019-04-04T19:51:44.981Z,54.27
2019-04-04T19:54:13.798Z,52.62
2019-04-04T19:56:42.572Z,53.50
2019-04-04T19:59:11.438Z,53.44
2019-04-04T20:01:40.437Z,52.82
2019-04-04T20:04:09.527Z,54.37
2019-04-04T20:06:38.173Z,55.17
2019-04-04T20:09:06.997Z,54.72
2019-04-04T20:11:36.171Z,54.27
2019-04-04T20:14:04.933Z,56.11
2019-04-04T20:16:33.575Z,54.24
2019-04-04T20:19:02.243Z,54.09
2019-04-04T20:21:30.983Z,54.18
2019-04-04T20:24:00.538Z,54.68
2019-04-04T20:26:29.423Z,54.92
2019-04-04T20:28:58.271Z,54.64
2019-04-04T20:31:27.130Z,55.10
2019-04-04T20:34:01.904Z,54.91
2019-04-04T20:36:26.763Z,55.47
2019-04-04T20:38:55.503Z,55.02
2019-04-04T20:41:24.078Z,56.40
2019-04-04T20:43:52.853Z,55.93
2019-04-04T20:46:21.753Z,56.47
2019-04-04T20:48:51.285Z,58.11
2019-04-04T20:51:20.331Z,57.10
2019-04-04T20:53:49.220Z,57.63
2019-04-04T20:56:18.179Z,57.52
2019-04-04T20:58:47.020Z,57.62
2019-04-04T21:01:15.947Z,58.34
2019-04-04T21:03:44.729Z,58.36
2019-04-04T21:06:13.724Z,58.85
2019-04-04T21:08:42.476Z,58.95
2019-04-04T21:11:11.322Z,58.66
2019-04-04T21:13:39.987Z,59.25
2019-04-04T21:16:08.658Z,59.58
2019-04-04T21:18:37.561Z,59.99
2019-04-04T21:21:06.256Z,60.30
2019-04-04T21:23:35.303Z,61.03
2019-04-04T21:26:03.927Z,60.68
2019-04-04T21:28:32.701Z,60.92
2019-04-04T21:31:01.347Z,61.11
2019-04-04T21:33:30.102Z,61.47
2019-04-04T21:35:58.846Z,60.83
2019-04-04T21:38:27.499Z,63.97
2019-04-04T21:40:56.135Z,62.62
2019-04-04T21:43:24.887Z,61.51
2019-04-04T21:45:53.537Z,61.66
2019-04-04T21:48:22.308Z,62.36
2019-04-04T21:50:50.866Z,62.71
2019-04-04T21:53:19.521Z,62.26
2019-04-04T21:55:48.265Z,62.83
2019-04-04T21:58:16.844Z,63.65
2019-04-04T22:00:45.891Z,64.68
2019-04-04T22:03:14.744Z,65.04
2019-04-04T22:05:43.408Z,66.64
2019-04-04T22:08:12.051Z,65.99
2019-04-04T22:10:40.827Z,65.10
2019-04-04T22:13:10.092Z,66.65
2019-04-04T22:15:38.751Z,64.79
2019-04-04T22:18:07.329Z,64.63
2019-04-04T22:20:35.983Z,64.09
2019-04-04T22:23:04.524Z,65.15
2019-04-04T22:25:33.091Z,65.79
2019-04-04T22:28:01.658Z,66.87
2019-04-04T22:30:30.342Z,65.39
2019-04-04T22:33:01.687Z,65.65
2019-04-04T22:35:29.347Z,65.54
2019-04-04T22:37:58.110Z,69.11
2019-04-04T22:40:26.668Z,67.61
2019-04-04T22:42:55.346Z,67.66
2019-04-04T22:45:24.018Z,67.98
2019-04-04T22:47:52.678Z,67.93
2019-04-04T22:50:21.249Z,66.98
2019-04-04T22:52:49.920Z,68.23
2019-04-04T22:55:18.499Z,67.60
2019-04-04T22:57:47.266Z,68.67
2019-04-04T23:00:16.114Z,69.08
2019-04-04T23:02:44.878Z,68.11
2019-04-04T23:05:13.740Z,69.35
2019-04-04T23:07:42.471Z,68.00
2019-04-04T23:10:11.140Z,68.40
2019-04-04T23:12:39.800Z,69.08
2019-04-04T23:15:08.974Z,68.64
2019-04-04T23:17:37.526Z,67.95
2019-04-04T23:20:07.575Z,69.66
2019-04-04T23:22:36.150Z,67.76
2019-04-04T23:25:05.718Z,68.36
2019-04-04T23:27:34.591Z,69.87
2019-04-04T23:30:03.705Z,67.53
2019-04-04T23:32:32.594Z,68.81
2019-04-04T23:35:01.227Z,69.11
2019-04-04T23:37:29.970Z,69.32
2019-04-04T23:39:58.528Z,68.44
2019-04-04T23:42:27.307Z,68.91
2019-04-04T23:45:01.318Z,68.58
2019-04-04T23:47:26.296Z,69.51
2019-04-04T23:49:54.951Z,67.36
2019-04-04T23:52:23.480Z,70.96
2019-04-04T23:54:52.278Z,69.97
2019-04-04T23:57:20.919Z,70.91
2019-04-04T23:59:49.584Z,67.96
